WAT5573 MMUN-KPNS
Flight info
| Callsign | WAT5573 |
|---|---|
| Flight time | 1h 43m |
| Altitude | 43000 |
| Route | NOSU2A/12R NOSUG UT27 PISAD L333 HRV/N0496F410 |
| Aircraft | GLF6/M-SBDE2E3FGHIJ4J5M1RWXY/LB1D1 |
Departure
| Time | 2026-04-29 04:32 |
|---|---|
| Airport | Cancún International Airport (MMUN) |
Arrival
| Time | 2026-04-29 06:15 |
|---|---|
| Airport | Pensacola International Airport (KPNS) |
| Time | Latitude | Longitude | Altitude | Speed | Heading |
|---|---|---|---|---|---|
| 2026-04-29 03:58 | 21.03407 | -86.86492 | 41 ft | 0 kts | 123° |
| 2026-04-29 04:19 | 21.03407 | -86.86491 | 41 ft | 1 kts | 123° |
| 2026-04-29 04:19 | 21.03399 | -86.86472 | 41 ft | 2 kts | 95° |
| 2026-04-29 04:19 | 21.03426 | -86.86441 | 43 ft | 6 kts | 33° |
| 2026-04-29 04:20 | 21.03465 | -86.86440 | 43 ft | 9 kts | 312° |
| 2026-04-29 04:20 | 21.03505 | -86.86503 | 43 ft | 8 kts | 302° |
| 2026-04-29 04:20 | 21.03511 | -86.86512 | 43 ft | 0 kts | 304° |
| 2026-04-29 04:21 | 21.03511 | -86.86513 | 43 ft | 0 kts | 304° |
| 2026-04-29 04:22 | 21.03529 | -86.86541 | 42 ft | 9 kts | 303° |
| 2026-04-29 04:22 | 21.03524 | -86.86582 | 41 ft | 6 kts | 215° |
| 2026-04-29 04:22 | 21.03471 | -86.86620 | 40 ft | 11 kts | 212° |
| 2026-04-29 04:22 | 21.03399 | -86.86671 | 38 ft | 12 kts | 213° |
| 2026-04-29 04:23 | 21.03321 | -86.86726 | 35 ft | 11 kts | 214° |
| 2026-04-29 04:23 | 21.03282 | -86.86774 | 34 ft | 9 kts | 263° |
| 2026-04-29 04:23 | 21.03310 | -86.86834 | 33 ft | 10 kts | 303° |
| 2026-04-29 04:23 | 21.03361 | -86.86916 | 33 ft | 13 kts | 304° |
| 2026-04-29 04:24 | 21.03413 | -86.86998 | 32 ft | 13 kts | 303° |
| 2026-04-29 04:24 | 21.03465 | -86.87082 | 31 ft | 13 kts | 304° |
| 2026-04-29 04:24 | 21.03521 | -86.87169 | 30 ft | 14 kts | 304° |
| 2026-04-29 04:24 | 21.03578 | -86.87263 | 28 ft | 15 kts | 303° |
| 2026-04-29 04:25 | 21.03639 | -86.87359 | 27 ft | 15 kts | 304° |
| 2026-04-29 04:25 | 21.03702 | -86.87459 | 25 ft | 16 kts | 304° |
| 2026-04-29 04:25 | 21.03766 | -86.87562 | 24 ft | 16 kts | 303° |
| 2026-04-29 04:25 | 21.03827 | -86.87661 | 24 ft | 15 kts | 303° |
| 2026-04-29 04:26 | 21.03886 | -86.87755 | 24 ft | 16 kts | 304° |
| 2026-04-29 04:26 | 21.03952 | -86.87858 | 24 ft | 17 kts | 304° |
| 2026-04-29 04:26 | 21.04018 | -86.87965 | 24 ft | 17 kts | 303° |
| 2026-04-29 04:26 | 21.04083 | -86.88068 | 26 ft | 15 kts | 304° |
| 2026-04-29 04:27 | 21.04143 | -86.88165 | 27 ft | 16 kts | 303° |
| 2026-04-29 04:27 | 21.04211 | -86.88274 | 29 ft | 17 kts | 303° |
| 2026-04-29 04:27 | 21.04273 | -86.88372 | 31 ft | 15 kts | 304° |
| 2026-04-29 04:27 | 21.04328 | -86.88459 | 33 ft | 12 kts | 303° |
| 2026-04-29 04:28 | 21.04372 | -86.88532 | 34 ft | 10 kts | 303° |
| 2026-04-29 04:28 | 21.04422 | -86.88611 | 35 ft | 16 kts | 304° |
| 2026-04-29 04:28 | 21.04489 | -86.88718 | 35 ft | 19 kts | 304° |
| 2026-04-29 04:28 | 21.04565 | -86.88839 | 35 ft | 19 kts | 304° |
| 2026-04-29 04:29 | 21.04626 | -86.88937 | 36 ft | 7 kts | 302° |
| 2026-04-29 04:29 | 21.04629 | -86.88941 | 36 ft | 0 kts | 302° |
| 2026-04-29 04:29 | 21.04643 | -86.88975 | 36 ft | 7 kts | 281° |
| 2026-04-29 04:30 | 21.04620 | -86.89021 | 36 ft | 7 kts | 221° |
| 2026-04-29 04:30 | 21.04574 | -86.89054 | 35 ft | 10 kts | 214° |
| 2026-04-29 04:30 | 21.04506 | -86.89057 | 34 ft | 1 kts | 124° |
| 2026-04-29 04:31 | 21.04505 | -86.89055 | 34 ft | 0 kts | 124° |
| 2026-04-29 04:31 | 21.04505 | -86.89054 | 34 ft | 0 kts | 124° |
| 2026-04-29 04:31 | 21.04456 | -86.88977 | 34 ft | 36 kts | 123° |
| 2026-04-29 04:31 | 21.04102 | -86.88414 | 30 ft | 141 kts | 123° |
| 2026-04-29 04:32 | 21.03472 | -86.87414 | 553 ft | 172 kts | 123° |
| 2026-04-29 04:32 | 21.02785 | -86.86335 | 1639 ft | 187 kts | 121° |
| 2026-04-29 04:32 | 21.02598 | -86.85080 | 2945 ft | 176 kts | 75° |
| 2026-04-29 04:32 | 21.03368 | -86.84090 | 4094 ft | 185 kts | 39° |
| 2026-04-29 04:33 | 21.04479 | -86.83282 | 4845 ft | 217 kts | 39° |
| 2026-04-29 04:33 | 21.05851 | -86.82280 | 5377 ft | 260 kts | 38° |
| 2026-04-29 04:33 | 21.07534 | -86.81030 | 5334 ft | 320 kts | 38° |
| 2026-04-29 04:33 | 21.09485 | -86.79589 | 5621 ft | 355 kts | 35° |
| 2026-04-29 04:34 | 21.11621 | -86.78633 | 6282 ft | 307 kts | 17° |
| 2026-04-29 04:34 | 21.13759 | -86.78612 | 6668 ft | 316 kts | 352° |
| 2026-04-29 04:34 | 21.15862 | -86.79137 | 6661 ft | 297 kts | 350° |
| 2026-04-29 04:34 | 21.17846 | -86.79605 | 6662 ft | 287 kts | 351° |
| 2026-04-29 04:35 | 21.19784 | -86.80026 | 6662 ft | 291 kts | 353° |
| 2026-04-29 04:35 | 21.21825 | -86.80436 | 8078 ft | 293 kts | 353° |
| 2026-04-29 04:35 | 21.23791 | -86.80825 | 9445 ft | 295 kts | 353° |
| 2026-04-29 04:35 | 21.25782 | -86.81214 | 10638 ft | 302 kts | 353° |
| 2026-04-29 04:36 | 21.28039 | -86.81650 | 10911 ft | 342 kts | 352° |
| 2026-04-29 04:36 | 21.30385 | -86.82108 | 11998 ft | 351 kts | 352° |
| 2026-04-29 04:36 | 21.32782 | -86.82576 | 13142 ft | 356 kts | 352° |
| 2026-04-29 04:36 | 21.35225 | -86.83051 | 14287 ft | 361 kts | 352° |
| 2026-04-29 04:37 | 21.37712 | -86.83535 | 15401 ft | 366 kts | 352° |
| 2026-04-29 04:37 | 21.40216 | -86.84023 | 16650 ft | 367 kts | 351° |
| 2026-04-29 04:37 | 21.42722 | -86.84512 | 17765 ft | 371 kts | 352° |
| 2026-04-29 04:37 | 21.45281 | -86.85008 | 18877 ft | 376 kts | 352° |
| 2026-04-29 04:38 | 21.47883 | -86.85515 | 19852 ft | 386 kts | 352° |
| 2026-04-29 04:38 | 21.50503 | -86.86025 | 21169 ft | 386 kts | 351° |
| 2026-04-29 04:38 | 21.53174 | -86.86546 | 22271 ft | 392 kts | 351° |
| 2026-04-29 04:38 | 21.55878 | -86.87073 | 23268 ft | 399 kts | 351° |
| 2026-04-29 04:39 | 21.58621 | -86.87607 | 24420 ft | 402 kts | 351° |
| 2026-04-29 04:39 | 21.61378 | -86.88145 | 25527 ft | 407 kts | 351° |
| 2026-04-29 04:39 | 21.64180 | -86.88692 | 26516 ft | 412 kts | 350° |
| 2026-04-29 04:39 | 21.67016 | -86.89245 | 26918 ft | 407 kts | 349° |
| 2026-04-29 04:40 | 21.69807 | -86.89793 | 26954 ft | 408 kts | 350° |
| 2026-04-29 04:40 | 21.72610 | -86.90339 | 26956 ft | 413 kts | 349° |
| 2026-04-29 04:40 | 21.75448 | -86.90894 | 26954 ft | 415 kts | 350° |
| 2026-04-29 04:40 | 21.78299 | -86.91453 | 26953 ft | 412 kts | 350° |
| 2026-04-29 04:41 | 21.81115 | -86.92001 | 26956 ft | 413 kts | 349° |
| 2026-04-29 04:41 | 21.83976 | -86.92562 | 26949 ft | 415 kts | 350° |
| 2026-04-29 04:41 | 21.86831 | -86.93028 | 26948 ft | 417 kts | 354° |
| 2026-04-29 04:41 | 21.89717 | -86.93268 | 27886 ft | 421 kts | 355° |
| 2026-04-29 04:42 | 21.92668 | -86.93517 | 28932 ft | 422 kts | 354° |
| 2026-04-29 04:42 | 21.95602 | -86.93768 | 29722 ft | 428 kts | 354° |
| 2026-04-29 04:42 | 21.98548 | -86.94019 | 31024 ft | 422 kts | 355° |
| 2026-04-29 04:42 | 22.01414 | -86.94266 | 32337 ft | 414 kts | 355° |
| 2026-04-29 04:43 | 22.04265 | -86.94507 | 33774 ft | 403 kts | 355° |
| 2026-04-29 04:43 | 22.07176 | -86.94754 | 34231 ft | 412 kts | 355° |
| 2026-04-29 04:43 | 22.10058 | -86.95002 | 34932 ft | 416 kts | 355° |
| 2026-04-29 04:43 | 22.12990 | -86.95252 | 35746 ft | 417 kts | 354° |
| 2026-04-29 04:44 | 22.15928 | -86.95504 | 36231 ft | 424 kts | 354° |
| 2026-04-29 04:44 | 22.18882 | -86.95757 | 36953 ft | 427 kts | 354° |
| 2026-04-29 04:44 | 22.21902 | -86.96017 | 37474 ft | 433 kts | 354° |
| 2026-04-29 04:44 | 22.24898 | -86.96272 | 38119 ft | 436 kts | 353° |
| 2026-04-29 04:45 | 22.27967 | -86.96537 | 38679 ft | 440 kts | 353° |
| 2026-04-29 04:45 | 22.31037 | -86.96800 | 39486 ft | 441 kts | 353° |
| 2026-04-29 04:45 | 22.34119 | -86.97064 | 40129 ft | 443 kts | 353° |
| 2026-04-29 04:45 | 22.37173 | -86.97326 | 40852 ft | 443 kts | 353° |
| 2026-04-29 04:46 | 22.40276 | -86.97594 | 41487 ft | 445 kts | 353° |
| 2026-04-29 04:46 | 22.43352 | -86.97857 | 42198 ft | 445 kts | 353° |
| 2026-04-29 04:46 | 22.46491 | -86.98128 | 42805 ft | 447 kts | 353° |
| 2026-04-29 04:46 | 22.49589 | -86.98394 | 43039 ft | 444 kts | 353° |
| 2026-04-29 04:47 | 22.52683 | -86.98660 | 43026 ft | 441 kts | 352° |
| 2026-04-29 04:47 | 22.58795 | -86.99187 | 43029 ft | 438 kts | 352° |
| 2026-04-29 04:48 | 22.64927 | -86.99717 | 43022 ft | 440 kts | 353° |
| 2026-04-29 04:48 | 22.71023 | -87.00242 | 43024 ft | 440 kts | 353° |
| 2026-04-29 04:49 | 22.77163 | -87.00772 | 43032 ft | 440 kts | 352° |
| 2026-04-29 04:49 | 22.83255 | -87.01299 | 43029 ft | 440 kts | 353° |
| 2026-04-29 04:50 | 22.89333 | -87.01823 | 43025 ft | 439 kts | 352° |
| 2026-04-29 04:50 | 22.90885 | -87.01959 | 43021 ft | 439 kts | 352° |
| 2026-04-29 04:51 | 22.94895 | -87.02306 | 43030 ft | 439 kts | 352° |
| 2026-04-29 04:51 | 23.01010 | -87.02836 | 43026 ft | 438 kts | 352° |
| 2026-04-29 04:52 | 23.07102 | -87.03364 | 43025 ft | 437 kts | 353° |
| 2026-04-29 04:52 | 23.13231 | -87.03896 | 43030 ft | 437 kts | 352° |
| 2026-04-29 04:53 | 23.19330 | -87.04427 | 43030 ft | 437 kts | 352° |
| 2026-04-29 04:53 | 23.25392 | -87.04953 | 43035 ft | 435 kts | 352° |
| 2026-04-29 04:54 | 23.31472 | -87.05482 | 43036 ft | 434 kts | 352° |
| 2026-04-29 04:54 | 23.37503 | -87.06007 | 43038 ft | 433 kts | 352° |
| 2026-04-29 04:55 | 23.43534 | -87.06534 | 43035 ft | 433 kts | 352° |
| 2026-04-29 04:55 | 23.49545 | -87.07058 | 43034 ft | 432 kts | 352° |
| 2026-04-29 04:56 | 23.55542 | -87.07581 | 43043 ft | 432 kts | 352° |
| 2026-04-29 04:56 | 23.61550 | -87.08108 | 43042 ft | 431 kts | 352° |
| 2026-04-29 04:57 | 23.67558 | -87.08633 | 43044 ft | 430 kts | 352° |
| 2026-04-29 04:57 | 23.73512 | -87.09154 | 43036 ft | 428 kts | 352° |
| 2026-04-29 04:58 | 23.79521 | -87.09682 | 43040 ft | 427 kts | 352° |
| 2026-04-29 04:58 | 23.85473 | -87.10204 | 43040 ft | 427 kts | 352° |
| 2026-04-29 04:59 | 23.91381 | -87.10722 | 43045 ft | 427 kts | 352° |
| 2026-04-29 04:59 | 23.97334 | -87.11246 | 43045 ft | 427 kts | 352° |
| 2026-04-29 05:00 | 24.03238 | -87.11765 | 43043 ft | 425 kts | 352° |
| 2026-04-29 05:00 | 24.09162 | -87.12287 | 43050 ft | 424 kts | 352° |
| 2026-04-29 05:01 | 24.15015 | -87.12803 | 43049 ft | 423 kts | 352° |
| 2026-04-29 05:01 | 24.20906 | -87.13324 | 43053 ft | 424 kts | 352° |
| 2026-04-29 05:02 | 24.26795 | -87.13843 | 43052 ft | 424 kts | 352° |
| 2026-04-29 05:02 | 24.29690 | -87.14357 | 43040 ft | 416 kts | 341° |
| 2026-04-29 05:02 | 24.32415 | -87.15340 | 43056 ft | 415 kts | 339° |
| 2026-04-29 05:03 | 24.37894 | -87.17365 | 43038 ft | 415 kts | 339° |
| 2026-04-29 05:03 | 24.43389 | -87.19399 | 43047 ft | 415 kts | 339° |
| 2026-04-29 05:04 | 24.48869 | -87.21432 | 43040 ft | 414 kts | 339° |
| 2026-04-29 05:04 | 24.54298 | -87.23447 | 43050 ft | 413 kts | 339° |
| 2026-04-29 05:05 | 24.59751 | -87.25473 | 43045 ft | 413 kts | 339° |
| 2026-04-29 05:05 | 24.65184 | -87.27494 | 43044 ft | 410 kts | 339° |
| 2026-04-29 05:06 | 24.70587 | -87.29504 | 43055 ft | 411 kts | 339° |
| 2026-04-29 05:06 | 24.75996 | -87.31519 | 43040 ft | 410 kts | 339° |
| 2026-04-29 05:07 | 24.81378 | -87.33527 | 43040 ft | 408 kts | 339° |
| 2026-04-29 05:07 | 24.86759 | -87.35536 | 43043 ft | 408 kts | 338° |
| 2026-04-29 05:08 | 24.92170 | -87.37556 | 43043 ft | 407 kts | 339° |
| 2026-04-29 05:08 | 24.97527 | -87.39560 | 43046 ft | 407 kts | 339° |
| 2026-04-29 05:09 | 25.02890 | -87.41567 | 43048 ft | 407 kts | 338° |
| 2026-04-29 05:09 | 25.08278 | -87.43608 | 43045 ft | 404 kts | 338° |
| 2026-04-29 05:10 | 25.13637 | -87.45659 | 43049 ft | 405 kts | 338° |
| 2026-04-29 05:10 | 25.18956 | -87.47694 | 43051 ft | 404 kts | 338° |
| 2026-04-29 05:11 | 25.24317 | -87.49748 | 43040 ft | 405 kts | 338° |
| 2026-04-29 05:11 | 25.29626 | -87.51785 | 43042 ft | 402 kts | 338° |
| 2026-04-29 05:12 | 25.34935 | -87.53822 | 43049 ft | 402 kts | 338° |
| 2026-04-29 05:12 | 25.40202 | -87.55846 | 43063 ft | 403 kts | 339° |
| 2026-04-29 05:13 | 25.45540 | -87.57899 | 43041 ft | 401 kts | 338° |
| 2026-04-29 05:13 | 25.50814 | -87.59929 | 43040 ft | 401 kts | 338° |
| 2026-04-29 05:14 | 25.56107 | -87.61970 | 43044 ft | 400 kts | 338° |
| 2026-04-29 05:14 | 25.61380 | -87.64003 | 43041 ft | 401 kts | 338° |
| 2026-04-29 05:15 | 25.66637 | -87.66032 | 43040 ft | 400 kts | 338° |
| 2026-04-29 05:15 | 25.71932 | -87.68078 | 43043 ft | 400 kts | 338° |
| 2026-04-29 05:16 | 25.77155 | -87.70097 | 43040 ft | 399 kts | 337° |
| 2026-04-29 05:16 | 25.82414 | -87.72134 | 43023 ft | 398 kts | 337° |
| 2026-04-29 05:17 | 25.87675 | -87.74172 | 43035 ft | 398 kts | 338° |
| 2026-04-29 05:17 | 25.92893 | -87.76196 | 43032 ft | 397 kts | 338° |
| 2026-04-29 05:18 | 25.98127 | -87.78228 | 43036 ft | 397 kts | 338° |
| 2026-04-29 05:18 | 26.03306 | -87.80241 | 43025 ft | 396 kts | 338° |
| 2026-04-29 05:19 | 26.08525 | -87.82272 | 43024 ft | 398 kts | 338° |
| 2026-04-29 05:19 | 26.13754 | -87.84306 | 43041 ft | 397 kts | 337° |
| 2026-04-29 05:20 | 26.18989 | -87.86346 | 43028 ft | 397 kts | 338° |
| 2026-04-29 05:20 | 26.24224 | -87.88388 | 43036 ft | 398 kts | 337° |
| 2026-04-29 05:21 | 26.29438 | -87.90424 | 43038 ft | 398 kts | 337° |
| 2026-04-29 05:21 | 26.34661 | -87.92464 | 43038 ft | 398 kts | 337° |
| 2026-04-29 05:22 | 26.39910 | -87.94518 | 43043 ft | 399 kts | 337° |
| 2026-04-29 05:22 | 26.45116 | -87.96555 | 43036 ft | 398 kts | 337° |
| 2026-04-29 05:23 | 26.50358 | -87.98611 | 43035 ft | 398 kts | 337° |
| 2026-04-29 05:23 | 26.55592 | -88.00665 | 43031 ft | 399 kts | 338° |
| 2026-04-29 05:24 | 26.60833 | -88.02721 | 43040 ft | 398 kts | 337° |
| 2026-04-29 05:24 | 26.66066 | -88.04779 | 43038 ft | 400 kts | 337° |
| 2026-04-29 05:25 | 26.71287 | -88.06833 | 43038 ft | 400 kts | 337° |
| 2026-04-29 05:25 | 26.76527 | -88.08897 | 43036 ft | 399 kts | 337° |
| 2026-04-29 05:26 | 26.81759 | -88.10960 | 43034 ft | 400 kts | 337° |
| 2026-04-29 05:26 | 26.87003 | -88.13028 | 43039 ft | 400 kts | 337° |
| 2026-04-29 05:27 | 26.92253 | -88.15102 | 43033 ft | 399 kts | 337° |
| 2026-04-29 05:27 | 27.00127 | -88.18217 | 43038 ft | 400 kts | 337° |
| 2026-04-29 05:28 | 27.05389 | -88.20300 | 43035 ft | 401 kts | 337° |
| 2026-04-29 05:28 | 27.10654 | -88.22387 | 43043 ft | 401 kts | 337° |
| 2026-04-29 05:29 | 27.15925 | -88.24477 | 43046 ft | 402 kts | 337° |
| 2026-04-29 05:29 | 27.21196 | -88.26572 | 43042 ft | 401 kts | 337° |
| 2026-04-29 05:30 | 27.26482 | -88.28673 | 43042 ft | 402 kts | 336° |
| 2026-04-29 05:30 | 27.31764 | -88.30757 | 43039 ft | 402 kts | 337° |
| 2026-04-29 05:31 | 27.37047 | -88.32824 | 43039 ft | 401 kts | 337° |
| 2026-04-29 05:31 | 27.42312 | -88.34886 | 43042 ft | 402 kts | 337° |
| 2026-04-29 05:32 | 27.47599 | -88.36959 | 43036 ft | 402 kts | 337° |
| 2026-04-29 05:32 | 27.52891 | -88.39037 | 43037 ft | 402 kts | 337° |
| 2026-04-29 05:33 | 27.58178 | -88.41113 | 43036 ft | 403 kts | 337° |
| 2026-04-29 05:33 | 27.63466 | -88.43195 | 43032 ft | 402 kts | 337° |
| 2026-04-29 05:34 | 27.68753 | -88.45275 | 43028 ft | 402 kts | 337° |
| 2026-04-29 05:34 | 27.74051 | -88.47363 | 43030 ft | 403 kts | 337° |
| 2026-04-29 05:35 | 27.79329 | -88.49446 | 43026 ft | 402 kts | 337° |
| 2026-04-29 05:35 | 27.84605 | -88.51530 | 43028 ft | 401 kts | 337° |
| 2026-04-29 05:36 | 27.89905 | -88.53625 | 43026 ft | 402 kts | 337° |
| 2026-04-29 05:36 | 27.95163 | -88.55706 | 43028 ft | 402 kts | 336° |
| 2026-04-29 05:37 | 28.00454 | -88.57802 | 43018 ft | 401 kts | 337° |
| 2026-04-29 05:37 | 28.05721 | -88.59890 | 43027 ft | 404 kts | 336° |
| 2026-04-29 05:38 | 28.11020 | -88.61994 | 43024 ft | 402 kts | 336° |
| 2026-04-29 05:38 | 28.16327 | -88.64104 | 43030 ft | 403 kts | 336° |
| 2026-04-29 05:39 | 28.21609 | -88.66206 | 43040 ft | 402 kts | 335° |
| 2026-04-29 05:39 | 28.24058 | -88.67671 | 43067 ft | 395 kts | 322° |
| 2026-04-29 05:39 | 28.26291 | -88.69464 | 43032 ft | 396 kts | 322° |
| 2026-04-29 05:40 | 28.30790 | -88.73094 | 43041 ft | 395 kts | 322° |
| 2026-04-29 05:40 | 28.35235 | -88.76693 | 43043 ft | 395 kts | 322° |
| 2026-04-29 05:41 | 28.39715 | -88.80323 | 43037 ft | 395 kts | 322° |
| 2026-04-29 05:41 | 28.44319 | -88.83785 | 43018 ft | 400 kts | 335° |
| 2026-04-29 05:42 | 28.47069 | -88.84349 | 43052 ft | 415 kts | 355° |
| 2026-04-29 05:42 | 28.49955 | -88.83646 | 43048 ft | 435 kts | 16° |
| 2026-04-29 05:42 | 28.52523 | -88.81715 | 43062 ft | 457 kts | 36° |
| 2026-04-29 05:42 | 28.54546 | -88.78862 | 43069 ft | 471 kts | 47° |
| 2026-04-29 05:43 | 28.58305 | -88.72774 | 43047 ft | 470 kts | 47° |
| 2026-04-29 05:43 | 28.62050 | -88.66702 | 43051 ft | 469 kts | 47° |
| 2026-04-29 05:44 | 28.65783 | -88.60645 | 43068 ft | 468 kts | 47° |
| 2026-04-29 05:44 | 28.69560 | -88.54514 | 43035 ft | 472 kts | 47° |
| 2026-04-29 05:45 | 28.71436 | -88.51466 | 42632 ft | 473 kts | 47° |
| 2026-04-29 05:45 | 28.73329 | -88.48384 | 42187 ft | 469 kts | 47° |
| 2026-04-29 05:45 | 28.75178 | -88.45371 | 41739 ft | 462 kts | 47° |
| 2026-04-29 05:45 | 28.77000 | -88.42403 | 41303 ft | 456 kts | 47° |
| 2026-04-29 05:46 | 28.78820 | -88.39440 | 40865 ft | 455 kts | 46° |
| 2026-04-29 05:46 | 28.80875 | -88.36823 | 40417 ft | 434 kts | 31° |
| 2026-04-29 05:46 | 28.83335 | -88.34935 | 40010 ft | 423 kts | 23° |
| 2026-04-29 05:46 | 28.85919 | -88.33340 | 39519 ft | 420 kts | 20° |
| 2026-04-29 05:47 | 28.88512 | -88.31870 | 39079 ft | 418 kts | 19° |
| 2026-04-29 05:47 | 28.91110 | -88.30444 | 38612 ft | 413 kts | 18° |
| 2026-04-29 05:47 | 28.93716 | -88.29035 | 38167 ft | 414 kts | 19° |
| 2026-04-29 05:47 | 28.96319 | -88.27634 | 37712 ft | 415 kts | 18° |
| 2026-04-29 05:48 | 28.98961 | -88.26215 | 37247 ft | 417 kts | 19° |
| 2026-04-29 05:48 | 29.01582 | -88.24805 | 36781 ft | 416 kts | 19° |
| 2026-04-29 05:48 | 29.04194 | -88.23401 | 36324 ft | 418 kts | 19° |
| 2026-04-29 05:48 | 29.06845 | -88.21975 | 35855 ft | 418 kts | 19° |
| 2026-04-29 05:49 | 29.09488 | -88.20552 | 35388 ft | 420 kts | 19° |
| 2026-04-29 05:49 | 29.12144 | -88.19123 | 34941 ft | 421 kts | 19° |
| 2026-04-29 05:49 | 29.14844 | -88.17670 | 34476 ft | 423 kts | 19° |
| 2026-04-29 05:49 | 29.17500 | -88.16235 | 34004 ft | 425 kts | 19° |
| 2026-04-29 05:50 | 29.20168 | -88.14796 | 33540 ft | 426 kts | 19° |
| 2026-04-29 05:50 | 29.22861 | -88.13343 | 33073 ft | 428 kts | 19° |
| 2026-04-29 05:50 | 29.25573 | -88.11879 | 32627 ft | 430 kts | 19° |
| 2026-04-29 05:50 | 29.28297 | -88.10407 | 32157 ft | 433 kts | 19° |
| 2026-04-29 05:51 | 29.31047 | -88.08920 | 31673 ft | 438 kts | 19° |
| 2026-04-29 05:51 | 29.33763 | -88.07449 | 31193 ft | 438 kts | 19° |
| 2026-04-29 05:51 | 29.36559 | -88.05936 | 30702 ft | 444 kts | 19° |
| 2026-04-29 05:51 | 29.39352 | -88.04425 | 30210 ft | 445 kts | 19° |
| 2026-04-29 05:52 | 29.42172 | -88.02895 | 29706 ft | 447 kts | 19° |
| 2026-04-29 05:52 | 29.44965 | -88.01380 | 29218 ft | 446 kts | 19° |
| 2026-04-29 05:52 | 29.47754 | -87.99864 | 28721 ft | 441 kts | 19° |
| 2026-04-29 05:52 | 29.50532 | -87.98358 | 28227 ft | 439 kts | 19° |
| 2026-04-29 05:53 | 29.53288 | -87.96860 | 27738 ft | 439 kts | 19° |
| 2026-04-29 05:53 | 29.56035 | -87.95367 | 27255 ft | 435 kts | 19° |
| 2026-04-29 05:53 | 29.58776 | -87.93876 | 26766 ft | 433 kts | 19° |
| 2026-04-29 05:53 | 29.61485 | -87.92400 | 26292 ft | 429 kts | 19° |
| 2026-04-29 05:54 | 29.64174 | -87.90936 | 25816 ft | 428 kts | 19° |
| 2026-04-29 05:54 | 29.66854 | -87.89477 | 25349 ft | 427 kts | 19° |
| 2026-04-29 05:54 | 29.69555 | -87.88003 | 24873 ft | 426 kts | 19° |
| 2026-04-29 05:54 | 29.72217 | -87.86550 | 24403 ft | 424 kts | 19° |
| 2026-04-29 05:55 | 29.74859 | -87.85107 | 23938 ft | 423 kts | 19° |
| 2026-04-29 05:55 | 29.77527 | -87.83650 | 23472 ft | 419 kts | 19° |
| 2026-04-29 05:55 | 29.80155 | -87.82214 | 23010 ft | 419 kts | 19° |
| 2026-04-29 05:55 | 29.82750 | -87.80794 | 22553 ft | 415 kts | 19° |
| 2026-04-29 05:56 | 29.85359 | -87.79367 | 22099 ft | 413 kts | 19° |
| 2026-04-29 05:56 | 29.87943 | -87.77953 | 21644 ft | 412 kts | 19° |
| 2026-04-29 05:56 | 29.90524 | -87.76537 | 21189 ft | 409 kts | 19° |
| 2026-04-29 05:56 | 29.93058 | -87.75150 | 20741 ft | 407 kts | 19° |
| 2026-04-29 05:57 | 29.95633 | -87.73736 | 20287 ft | 404 kts | 19° |
| 2026-04-29 05:57 | 29.98160 | -87.72350 | 19845 ft | 403 kts | 19° |
| 2026-04-29 05:57 | 30.00671 | -87.70972 | 19401 ft | 401 kts | 18° |
| 2026-04-29 05:57 | 30.03209 | -87.69578 | 18956 ft | 401 kts | 18° |
| 2026-04-29 05:58 | 30.05711 | -87.68201 | 18512 ft | 397 kts | 18° |
| 2026-04-29 05:58 | 30.08187 | -87.66841 | 18083 ft | 396 kts | 19° |
| 2026-04-29 05:58 | 30.10679 | -87.65469 | 17618 ft | 394 kts | 19° |
| 2026-04-29 05:58 | 30.13134 | -87.64116 | 17155 ft | 393 kts | 19° |
| 2026-04-29 05:59 | 30.15608 | -87.62756 | 16715 ft | 389 kts | 19° |
| 2026-04-29 05:59 | 30.18070 | -87.61398 | 16291 ft | 387 kts | 19° |
| 2026-04-29 05:59 | 30.20524 | -87.60043 | 15849 ft | 386 kts | 19° |
| 2026-04-29 05:59 | 30.23034 | -87.58659 | 15410 ft | 384 kts | 20° |
| 2026-04-29 06:00 | 30.25472 | -87.57313 | 14986 ft | 382 kts | 20° |
| 2026-04-29 06:00 | 30.27895 | -87.55975 | 14559 ft | 382 kts | 20° |
| 2026-04-29 06:00 | 30.30320 | -87.54633 | 14133 ft | 380 kts | 20° |
| 2026-04-29 06:00 | 30.32703 | -87.53314 | 13714 ft | 379 kts | 20° |
| 2026-04-29 06:01 | 30.35094 | -87.51996 | 13289 ft | 377 kts | 20° |
| 2026-04-29 06:01 | 30.37543 | -87.51271 | 12869 ft | 363 kts | 360° |
| 2026-04-29 06:01 | 30.40085 | -87.51144 | 12516 ft | 362 kts | 357° |
| 2026-04-29 06:01 | 30.42605 | -87.51031 | 12144 ft | 361 kts | 357° |
| 2026-04-29 06:02 | 30.45085 | -87.50932 | 11777 ft | 350 kts | 357° |
| 2026-04-29 06:02 | 30.47502 | -87.50835 | 11402 ft | 339 kts | 357° |
| 2026-04-29 06:02 | 30.49819 | -87.50743 | 11044 ft | 330 kts | 357° |
| 2026-04-29 06:02 | 30.52093 | -87.50645 | 10671 ft | 325 kts | 358° |
| 2026-04-29 06:03 | 30.54343 | -87.50566 | 10301 ft | 322 kts | 358° |
| 2026-04-29 06:03 | 30.56582 | -87.50493 | 9948 ft | 318 kts | 358° |
| 2026-04-29 06:03 | 30.58763 | -87.50424 | 9599 ft | 311 kts | 357° |
| 2026-04-29 06:03 | 30.60910 | -87.50355 | 9249 ft | 305 kts | 357° |
| 2026-04-29 06:04 | 30.63009 | -87.50294 | 8935 ft | 299 kts | 357° |
| 2026-04-29 06:04 | 30.65082 | -87.50233 | 8662 ft | 293 kts | 358° |
| 2026-04-29 06:04 | 30.67104 | -87.50173 | 8380 ft | 287 kts | 358° |
| 2026-04-29 06:04 | 30.69069 | -87.50126 | 8106 ft | 283 kts | 357° |
| 2026-04-29 06:05 | 30.71034 | -87.50081 | 7846 ft | 277 kts | 358° |
| 2026-04-29 06:05 | 30.72960 | -87.50034 | 7590 ft | 273 kts | 1° |
| 2026-04-29 06:05 | 30.74737 | -87.49232 | 7570 ft | 274 kts | 37° |
| 2026-04-29 06:05 | 30.75780 | -87.47473 | 7573 ft | 261 kts | 73° |
| 2026-04-29 06:06 | 30.76173 | -87.45443 | 7592 ft | 256 kts | 80° |
| 2026-04-29 06:06 | 30.76524 | -87.43396 | 7577 ft | 258 kts | 80° |
| 2026-04-29 06:06 | 30.76874 | -87.41349 | 7391 ft | 258 kts | 80° |
| 2026-04-29 06:06 | 30.77228 | -87.39281 | 7119 ft | 257 kts | 81° |
| 2026-04-29 06:07 | 30.77573 | -87.37262 | 6850 ft | 257 kts | 81° |
| 2026-04-29 06:07 | 30.77921 | -87.35220 | 6572 ft | 256 kts | 81° |
| 2026-04-29 06:07 | 30.78268 | -87.33187 | 6290 ft | 256 kts | 81° |
| 2026-04-29 06:07 | 30.78272 | -87.31176 | 5996 ft | 245 kts | 112° |
| 2026-04-29 06:08 | 30.77300 | -87.29672 | 5752 ft | 230 kts | 152° |
| 2026-04-29 06:08 | 30.75808 | -87.29157 | 5515 ft | 221 kts | 171° |
| 2026-04-29 06:08 | 30.74510 | -87.28248 | 5271 ft | 227 kts | 131° |
| 2026-04-29 06:08 | 30.73674 | -87.26681 | 5049 ft | 226 kts | 129° |
| 2026-04-29 06:09 | 30.72479 | -87.25627 | 4823 ft | 214 kts | 164° |
| 2026-04-29 06:09 | 30.71047 | -87.25179 | 4588 ft | 212 kts | 168° |
| 2026-04-29 06:09 | 30.69602 | -87.24766 | 4361 ft | 209 kts | 168° |
| 2026-04-29 06:09 | 30.68224 | -87.24381 | 4118 ft | 202 kts | 169° |
| 2026-04-29 06:10 | 30.66850 | -87.24007 | 3833 ft | 197 kts | 169° |
| 2026-04-29 06:10 | 30.65538 | -87.23654 | 3563 ft | 193 kts | 168° |
| 2026-04-29 06:10 | 30.64230 | -87.23303 | 3295 ft | 189 kts | 168° |
| 2026-04-29 06:10 | 30.63008 | -87.22976 | 3083 ft | 167 kts | 168° |
| 2026-04-29 06:11 | 30.61904 | -87.22681 | 2833 ft | 159 kts | 168° |
| 2026-04-29 06:11 | 30.60843 | -87.22398 | 2615 ft | 153 kts | 168° |
| 2026-04-29 06:11 | 30.59799 | -87.22120 | 2402 ft | 155 kts | 169° |
| 2026-04-29 06:11 | 30.58776 | -87.21847 | 2199 ft | 152 kts | 169° |
| 2026-04-29 06:12 | 30.57747 | -87.21574 | 2013 ft | 152 kts | 168° |
| 2026-04-29 06:12 | 30.56723 | -87.21301 | 1809 ft | 142 kts | 169° |
| 2026-04-29 06:12 | 30.55805 | -87.21057 | 1606 ft | 132 kts | 169° |
| 2026-04-29 06:12 | 30.54919 | -87.20821 | 1427 ft | 127 kts | 169° |
| 2026-04-29 06:13 | 30.54054 | -87.20592 | 1256 ft | 128 kts | 169° |
| 2026-04-29 06:13 | 30.53210 | -87.20357 | 1096 ft | 123 kts | 167° |
| 2026-04-29 06:13 | 30.52356 | -87.20136 | 969 ft | 128 kts | 169° |
| 2026-04-29 06:13 | 30.51485 | -87.19916 | 805 ft | 127 kts | 169° |
| 2026-04-29 06:14 | 30.50596 | -87.19682 | 628 ft | 135 kts | 168° |
| 2026-04-29 06:14 | 30.49676 | -87.19437 | 433 ft | 136 kts | 168° |
| 2026-04-29 06:14 | 30.48765 | -87.19192 | 251 ft | 131 kts | 167° |
| 2026-04-29 06:14 | 30.47888 | -87.18958 | 122 ft | 118 kts | 167° |
| 2026-04-29 06:15 | 30.47190 | -87.18774 | 98 ft | 81 kts | 167° |
| 2026-04-29 06:15 | 30.46743 | -87.18655 | 99 ft | 58 kts | 167° |
| 2026-04-29 06:15 | 30.46512 | -87.18593 | 101 ft | 14 kts | 171° |
| 2026-04-29 06:15 | 30.46453 | -87.18574 | 102 ft | 5 kts | 50° |
| 2026-04-29 06:16 | 30.46521 | -87.18588 | 101 ft | 13 kts | 346° |
| 2026-04-29 06:16 | 30.46619 | -87.18617 | 101 ft | 15 kts | 346° |
| 2026-04-29 06:16 | 30.46670 | -87.18580 | 101 ft | 9 kts | 77° |
| 2026-04-29 06:16 | 30.46684 | -87.18509 | 102 ft | 9 kts | 77° |
| 2026-04-29 06:17 | 30.46703 | -87.18415 | 102 ft | 12 kts | 77° |
| 2026-04-29 06:17 | 30.46721 | -87.18323 | 103 ft | 12 kts | 77° |
| 2026-04-29 06:17 | 30.46727 | -87.18289 | 104 ft | 1 kts | 78° |
| 2026-04-29 06:17 | 30.46736 | -87.18252 | 105 ft | 9 kts | 74° |
| 2026-04-29 06:18 | 30.46749 | -87.18188 | 106 ft | 7 kts | 78° |
| 2026-04-29 06:18 | 30.46785 | -87.18163 | 106 ft | 9 kts | 356° |
| 2026-04-29 06:18 | 30.46867 | -87.18183 | 106 ft | 12 kts | 347° |
| 2026-04-29 06:18 | 30.46928 | -87.18200 | 104 ft | 6 kts | 347° |
| 2026-04-29 06:19 | 30.46938 | -87.18202 | 104 ft | 0 kts | 347° |